Time;durP1;ratioP1;P1;durP2;ratioP2;P2;SDS_P1;SDS_P2;PMS_P1;PMS_P2;Temp;Humidity;BMP_temperature;BMP_pressure;BME280_temperature;BME280_humidity;BME280_pressure;Samples;Min_cycle;Max_cycle;Signal;HPM_P1;HPM_P2
2021/12/31 00:01:30;;;;;;;8.18;3.20;;;;;;;12.92;100.00;101689.19;5095952;28;20132;-65
2021/12/31 00:03:55;;;;;;;9.05;3.25;;;;;;;12.89;100.00;101698.84;5095553;28;20040;-67
2021/12/31 00:06:21;;;;;;;9.27;2.50;;;;;;;12.88;100.00;101699.72;5095850;28;20027;-66
2021/12/31 00:08:46;;;;;;;5.68;2.70;;;;;;;12.94;100.00;101696.19;5095571;28;20336;-66
2021/12/31 00:11:11;;;;;;;7.93;3.00;;;;;;;12.86;100.00;101687.50;5096102;28;20115;-68
2021/12/31 00:13:36;;;;;;;8.63;2.80;;;;;;;12.93;100.00;101694.44;5095824;28;20044;-68
2021/12/31 00:16:02;;;;;;;9.23;2.67;;;;;;;12.92;100.00;101705.84;5095234;28;20335;-67
2021/12/31 00:18:27;;;;;;;6.68;2.85;;;;;;;12.93;100.00;101714.59;5095738;28;20024;-67
2021/12/31 00:20:52;;;;;;;6.20;2.67;;;;;;;12.92;100.00;101713.72;5095421;28;20086;-67
2021/12/31 00:23:23;;;;;;;6.93;2.97;;;;;;;12.93;100.00;101706.72;5095223;28;20023;-66
2021/12/31 00:25:48;;;;;;;6.93;2.80;;;;;;;12.85;100.00;101702.38;5095781;28;20416;-67
2021/12/31 00:28:14;;;;;;;6.20;2.65;;;;;;;12.92;100.00;101715.47;5095560;28;20063;-66
2021/12/31 00:30:40;;;;;;;8.63;2.97;;;;;;;12.90;100.00;101712.84;5095356;28;20042;-66
2021/12/31 00:33:08;;;;;;;7.60;2.60;;;;;;;12.86;100.00;101708.50;5095408;28;20448;-66
2021/12/31 00:35:34;;;;;;;5.80;2.60;;;;;;;12.88;100.00;101715.50;5095578;28;20024;-67
2021/12/31 00:38:00;;;;;;;6.07;2.55;;;;;;;12.92;100.00;101718.97;5095187;28;20101;-67
2021/12/31 00:40:26;;;;;;;7.03;2.47;;;;;;;12.92;100.00;101725.97;5095428;28;20024;-67
2021/12/31 00:42:52;;;;;;;5.05;2.22;;;;;;;12.94;100.00;101717.22;5095245;28;20043;-67
2021/12/31 00:45:20;;;;;;;8.20;2.80;;;;;;;12.95;100.00;101710.19;5095384;28;20036;-66
2021/12/31 00:47:45;;;;;;;4.97;2.38;;;;;;;12.96;100.00;101707.56;5095579;28;20035;-66
2021/12/31 00:50:12;;;;;;;5.82;2.60;;;;;;;12.97;100.00;101714.56;5095072;28;20036;-66
2021/12/31 00:52:37;;;;;;;8.23;2.80;;;;;;;12.94;100.00;101704.06;5095280;28;20032;-67
2021/12/31 00:55:07;;;;;;;5.32;2.80;;;;;;;13.05;100.00;101711.84;5095140;28;20107;-66
2021/12/31 00:57:33;;;;;;;5.47;2.85;;;;;;;12.89;100.00;101719.00;5094938;28;20038;-67
2021/12/31 00:59:58;;;;;;;6.97;2.70;;;;;;;12.92;100.00;101715.47;5095693;28;20426;-68
2021/12/31 01:02:26;;;;;;;7.18;2.53;;;;;;;12.92;100.00;101716.34;5095104;28;20032;-66
2021/12/31 01:04:52;;;;;;;5.85;2.30;;;;;;;12.93;100.00;101714.59;5095049;28;20047;-65
2021/12/31 01:07:17;;;;;;;8.02;2.50;;;;;;;12.93;100.00;101712.84;5094951;28;20423;-65
2021/12/31 01:09:42;;;;;;;7.22;2.63;;;;;;;12.95;99.67;101707.56;5094736;28;20036;-66
2021/12/31 01:12:10;;;;;;;6.90;2.60;;;;;;;12.96;99.89;101711.94;5094836;28;20119;-66
2021/12/31 01:14:39;;;;;;;8.65;2.47;;;;;;;12.93;99.86;101706.72;5094991;28;20465;-67
2021/12/31 01:17:10;;;;;;;5.68;2.30;;;;;;;12.89;100.00;101717.25;5094302;28;20032;-66
2021/12/31 01:19:46;;;;;;;6.10;2.40;;;;;;;12.91;100.00;101709.34;5094870;28;20461;-68
2021/12/31 01:22:27;;;;;;;7.97;2.70;;;;;;;12.86;100.00;101713.75;5094504;28;20028;-66
2021/12/31 01:24:54;;;;;;;6.45;2.50;;;;;;;12.87;100.00;101715.50;5094979;28;20028;-66
2021/12/31 01:27:19;;;;;;;5.97;2.40;;;;;;;12.77;100.00;101685.84;5095089;28;20103;-67
2021/12/31 01:29:44;;;;;;;6.40;2.45;;;;;;;12.90;99.83;101697.97;5097681;28;20403;-67
2021/12/31 01:32:10;;;;;;;7.88;2.38;;;;;;;12.86;100.00;101708.50;5098541;28;20031;-67
2021/12/31 01:34:36;;;;;;;6.78;2.40;;;;;;;12.79;100.00;101693.72;5098554;28;20035;-67
2021/12/31 01:37:02;;;;;;;8.02;2.40;;;;;;;12.81;100.00;101700.66;5098637;28;20028;-67
2021/12/31 01:39:28;;;;;;;8.25;2.55;;;;;;;12.82;100.00;101715.53;5098776;28;20028;-68
2021/12/31 01:41:57;;;;;;;8.93;2.70;;;;;;;12.87;100.00;101708.50;5098859;28;20463;-66
2021/12/31 01:44:23;;;;;;;5.60;2.70;;;;;;;12.84;100.00;101711.16;5098122;28;20455;-66
2021/12/31 01:47:04;;;;;;;4.88;2.28;;;;;;;12.84;100.00;101707.66;5098335;28;20027;-66
2021/12/31 01:49:36;;;;;;;4.20;2.13;;;;;;;12.85;99.69;101720.78;5098651;28;20050;-67
2021/12/31 01:52:03;;;;;;;6.10;2.70;;;;;;;12.93;99.13;101714.59;5098310;28;20323;-66
2021/12/31 01:54:29;;;;;;;6.38;2.40;;;;;;;12.92;99.31;101712.84;5098522;28;20031;-66
2021/12/31 01:56:55;;;;;;;7.45;2.88;;;;;;;12.83;98.26;101688.38;5098199;28;20024;-66
2021/12/31 01:59:21;;;;;;;6.70;2.30;;;;;;;12.95;99.11;101720.72;5098198;28;20089;-68
2021/12/31 02:01:46;;;;;;;5.57;2.58;;;;;;;13.00;98.23;101721.50;5098429;28;20036;-65
2021/12/31 02:04:12;;;;;;;5.75;2.35;;;;;;;12.99;98.09;101719.81;5098270;28;20046;-68
2021/12/31 02:06:38;;;;;;;7.47;2.40;;;;;;;12.89;98.24;101701.47;5097827;28;20032;-67
2021/12/31 02:09:05;;;;;;;7.10;2.72;;;;;;;13.00;97.97;101724.13;5098153;28;20027;-67
2021/12/31 02:11:30;;;;;;;5.38;2.25;;;;;;;12.93;98.06;101719.84;5098289;28;20036;-65
2021/12/31 02:13:57;;;;;;;6.22;2.17;;;;;;;12.95;97.43;101716.31;5098348;28;20056;-67
2021/12/31 02:16:23;;;;;;;6.03;2.35;;;;;;;13.00;97.58;101724.13;5097961;28;20111;-68
2021/12/31 02:18:48;;;;;;;6.40;2.38;;;;;;;12.97;97.96;101721.56;5098063;28;20399;-67
2021/12/31 02:21:14;;;;;;;6.15;2.50;;;;;;;13.03;97.22;101726.75;5098148;28;20047;-68
2021/12/31 02:23:45;;;;;;;6.10;2.55;;;;;;;12.94;98.09;101717.22;5098288;28;20362;-66
2021/12/31 02:26:12;;;;;;;5.83;2.57;;;;;;;12.98;97.38;101715.44;5097790;28;20039;-66
2021/12/31 02:28:38;;;;;;;6.03;2.17;;;;;;;12.97;97.01;101718.94;5097730;28;20453;-67
2021/12/31 02:31:03;;;;;;;6.18;2.30;;;;;;;12.92;98.01;101716.34;5097669;28;20107;-66
2021/12/31 02:33:30;;;;;;;5.90;2.35;;;;;;;12.95;97.35;101721.59;5097733;28;20129;-66
2021/12/31 02:35:56;;;;;;;7.22;2.53;;;;;;;12.96;97.25;101714.56;5097605;28;20036;-68
2021/12/31 02:38:21;;;;;;;7.03;2.53;;;;;;;12.94;97.04;101706.69;5097752;28;20036;-66
2021/12/31 02:40:46;;;;;;;7.68;2.17;;;;;;;12.97;97.34;101718.94;5097358;28;20032;-65
2021/12/31 02:43:12;;;;;;;7.53;2.40;;;;;;;12.95;97.58;101707.56;5097823;28;20073;-68
2021/12/31 02:45:40;;;;;;;9.70;2.70;;;;;;;12.92;97.32;101707.59;5097397;28;20088;-67
2021/12/31 02:48:06;;;;;;;5.63;2.30;;;;;;;12.89;97.72;101706.72;5097326;28;20506;-66
2021/12/31 02:50:34;;;;;;;7.95;2.58;;;;;;;12.84;98.17;101697.16;5097457;28;20103;-66
2021/12/31 02:53:01;;;;;;;10.18;2.20;;;;;;;12.87;98.14;101705.00;5097389;28;20558;-68
2021/12/31 02:55:30;;;;;;;6.50;2.38;;;;;;;12.87;97.31;101700.63;5097574;28;20670;-66
2021/12/31 02:57:57;;;;;;;11.00;2.40;;;;;;;12.85;97.64;101696.25;5096895;28;20272;-66
2021/12/31 03:00:22;;;;;;;4.82;2.50;;;;;;;12.93;96.46;101690.94;5097517;28;20039;-66
2021/12/31 03:02:49;;;;;;;6.63;2.42;;;;;;;12.87;97.09;101697.13;5097344;28;20027;-66
2021/12/31 03:05:14;;;;;;;6.85;2.40;;;;;;;12.79;97.34;101689.31;5097438;28;20046;-65
2021/12/31 03:07:42;;;;;;;10.50;2.78;;;;;;;12.83;97.49;101700.66;5097309;28;20421;-67
2021/12/31 03:10:09;;;;;;;8.32;2.53;;;;;;;12.92;96.72;101707.59;5097011;28;20060;-67
2021/12/31 03:12:36;;;;;;;8.25;2.60;;;;;;;12.93;96.52;101696.19;5096639;28;20056;-66
2021/12/31 03:15:01;;;;;;;4.75;2.15;;;;;;;12.80;97.61;101698.06;5097106;28;20114;-66
2021/12/31 03:17:27;;;;;;;5.60;2.10;;;;;;;12.81;97.90;101703.28;5096778;28;20111;-66
2021/12/31 03:20:00;;;;;;;6.50;2.30;;;;;;;12.66;98.27;101686.78;5096884;28;20059;-68
2021/12/31 03:22:25;;;;;;;7.47;2.67;;;;;;;12.71;97.93;101695.50;5096827;28;20028;-65
2021/12/31 03:24:51;;;;;;;7.85;2.60;;;;;;;12.64;98.54;101689.44;5096716;28;20347;-68
2021/12/31 03:27:16;;;;;;;10.85;2.90;;;;;;;12.68;98.46;101693.78;5096824;28;20024;-67
2021/12/31 03:29:41;;;;;;;7.47;2.65;;;;;;;12.68;98.02;101693.78;5096692;28;20455;-66
2021/12/31 03:32:06;;;;;;;5.85;2.45;;;;;;;12.68;98.12;101692.91;5096664;28;20039;-66
2021/12/31 03:34:31;;;;;;;6.90;2.60;;;;;;;12.69;97.55;101687.66;5096852;28;20043;-66
2021/12/31 03:36:57;;;;;;;5.00;2.50;;;;;;;12.64;98.13;101691.22;5096500;28;20105;-67
2021/12/31 03:39:22;;;;;;;5.47;2.40;;;;;;;12.55;98.42;101679.03;5096318;28;20062;-68
2021/12/31 03:41:48;;;;;;;6.25;2.40;;;;;;;12.64;97.98;101675.47;5096749;28;20051;-68
2021/12/31 03:44:13;;;;;;;5.97;2.70;;;;;;;12.57;98.75;101671.13;5096284;28;20166;-68
2021/12/31 03:46:38;;;;;;;7.00;2.33;;;;;;;12.57;97.89;101669.38;5096445;28;20028;-67
2021/12/31 03:49:03;;;;;;;9.35;2.78;;;;;;;12.57;98.53;101674.63;5096454;28;20423;-67
2021/12/31 03:51:29;;;;;;;7.68;2.58;;;;;;;12.66;97.10;101658.78;5095495;28;20040;-67
2021/12/31 03:53:54;;;;;;;5.47;2.42;;;;;;;12.59;97.77;101672.88;5096074;28;20169;-66
2021/12/31 03:56:21;;;;;;;5.28;2.38;;;;;;;12.53;98.28;101665.91;5096194;28;20072;-67
2021/12/31 03:58:47;;;;;;;7.80;2.75;;;;;;;12.53;98.35;101671.16;5096268;28;20028;-65
2021/12/31 04:01:12;;;;;;;6.57;2.60;;;;;;;12.51;98.19;101672.03;5095965;28;20129;-66
2021/12/31 04:03:37;;;;;;;8.02;2.60;;;;;;;12.45;99.00;101674.75;5096296;28;20024;-67
2021/12/31 04:06:02;;;;;;;10.25;2.40;;;;;;;12.59;98.19;101680.75;5095930;28;20068;-67
2021/12/31 04:08:28;;;;;;;7.18;2.80;;;;;;;12.61;98.55;101675.47;5096077;28;20051;-66
2021/12/31 04:10:53;;;;;;;11.45;2.80;;;;;;;12.60;98.20;101674.59;5095675;28;20024;-68
2021/12/31 04:13:18;;;;;;;10.60;2.90;;;;;;;12.66;97.39;101681.53;5095821;28;20051;-66
2021/12/31 04:15:44;;;;;;;5.00;2.58;;;;;;;12.70;97.42;101678.88;5095794;28;20032;-67
2021/12/31 04:18:09;;;;;;;7.45;2.80;;;;;;;12.70;97.03;101667.50;5096003;28;20031;-67
2021/12/31 04:20:41;;;;;;;6.93;3.08;;;;;;;12.63;97.71;101671.97;5095823;28;20386;-65
2021/12/31 04:23:30;;;;;;;7.22;2.75;;;;;;;12.78;96.81;101684.09;5095560;28;20032;-67
2021/12/31 04:25:57;;;;;;;8.18;3.08;;;;;;;12.79;96.23;101678.81;5095894;28;20055;-68
2021/12/31 04:28:23;;;;;;;8.05;3.15;;;;;;;12.61;97.46;101671.09;5095584;28;20346;-67
2021/12/31 04:30:48;;;;;;;7.63;3.03;;;;;;;12.83;96.28;101680.50;5095514;28;20028;-66
2021/12/31 04:33:13;;;;;;;5.95;2.70;;;;;;;12.75;96.96;101676.22;5096176;28;20043;-65
2021/12/31 04:35:39;;;;;;;7.55;2.80;;;;;;;12.81;96.30;101669.13;5095430;28;20107;-66
2021/12/31 04:38:04;;;;;;;6.63;3.13;;;;;;;12.74;96.80;101664.84;5095367;28;20145;-68
2021/12/31 04:40:29;;;;;;;8.68;3.25;;;;;;;12.74;96.66;101664.84;5095534;28;20036;-67
2021/12/31 04:42:55;;;;;;;8.30;3.17;;;;;;;12.79;95.93;101657.81;5095384;28;20032;-68
2021/12/31 04:45:20;;;;;;;8.65;3.55;;;;;;;12.70;96.96;101663.13;5095536;28;20036;-65
2021/12/31 04:47:46;;;;;;;9.15;3.45;;;;;;;12.77;96.48;101654.31;5095412;28;20036;-65
2021/12/31 04:50:11;;;;;;;7.22;3.25;;;;;;;12.71;96.64;101645.63;5095450;28;20032;-68
2021/12/31 04:52:37;;;;;;;9.40;3.50;;;;;;;12.70;96.68;101641.25;5095640;28;20024;-65
2021/12/31 04:55:03;;;;;;;7.22;3.20;;;;;;;12.68;96.10;101637.75;5095214;28;20062;-65
2021/12/31 04:57:29;;;;;;;6.72;3.15;;;;;;;12.61;96.49;101641.34;5095084;28;20350;-65
2021/12/31 04:59:54;;;;;;;11.10;3.60;;;;;;;12.61;96.75;101660.59;5095057;28;20024;-68
2021/12/31 05:02:19;;;;;;;8.07;3.10;;;;;;;12.63;96.65;101661.47;5095081;28;20347;-66
2021/12/31 05:04:45;;;;;;;7.70;3.30;;;;;;;12.63;95.60;101647.47;5095006;28;20052;-65
2021/12/31 05:07:10;;;;;;;8.20;3.08;;;;;;;12.61;96.64;101657.09;5094969;28;20109;-68
2021/12/31 05:09:36;;;;;;;7.07;2.97;;;;;;;12.49;97.09;101644.94;5094995;28;20351;-65
2021/12/31 05:12:03;;;;;;;7.22;2.95;;;;;;;12.54;97.39;101658.91;5094937;28;20423;-66
2021/12/31 05:14:29;;;;;;;7.35;3.20;;;;;;;12.61;96.41;101664.97;5094730;28;20093;-66
2021/12/31 05:16:54;;;;;;;7.10;2.78;;;;;;;12.58;96.75;101659.75;5094960;28;20111;-67
2021/12/31 05:19:19;;;;;;;6.82;3.15;;;;;;;12.55;96.58;101660.63;5095046;28;20036;-66
2021/12/31 05:21:44;;;;;;;6.22;2.58;;;;;;;12.65;95.60;101651.78;5095291;28;20400;-66
2021/12/31 05:24:10;;;;;;;5.05;2.90;;;;;;;12.63;95.56;101656.22;5094680;28;20036;-67
2021/12/31 05:26:35;;;;;;;5.90;2.50;;;;;;;12.59;96.11;101651.00;5095077;28;20028;-68
2021/12/31 05:29:02;;;;;;;7.22;2.70;;;;;;;12.51;96.45;101646.66;5094367;28;20023;-65
2021/12/31 05:31:28;;;;;;;8.75;3.03;;;;;;;12.62;95.50;101648.34;5095101;28;20111;-67
2021/12/31 05:33:53;;;;;;;6.68;2.80;;;;;;;12.60;95.53;101642.22;5094740;28;20032;-66
2021/12/31 05:36:18;;;;;;;9.95;2.97;;;;;;;12.50;95.92;101633.53;5076738;28;20097;-66
2021/12/31 05:38:44;;;;;;;6.38;2.38;;;;;;;12.53;95.19;101623.03;5095076;28;20046;-67
2021/12/31 05:41:10;;;;;;;7.38;2.92;;;;;;;12.50;95.54;101633.53;5094843;28;20035;-68
2021/12/31 05:43:35;;;;;;;9.40;2.70;;;;;;;12.50;95.14;101623.91;5094717;28;20039;-65
2021/12/31 05:46:00;;;;;;;7.47;2.85;;;;;;;12.42;94.99;101614.38;5094359;28;20115;-66
2021/12/31 05:48:25;;;;;;;6.53;2.95;;;;;;;12.31;95.71;101610.97;5094462;28;20036;-67
2021/12/31 05:50:51;;;;;;;7.88;2.92;;;;;;;12.25;95.81;101616.28;5094959;28;20089;-66
2021/12/31 05:53:16;;;;;;;6.60;3.17;;;;;;;12.09;96.74;101603.28;5094535;28;20032;-66
2021/12/31 05:55:42;;;;;;;6.45;2.72;;;;;;;12.06;96.59;101599.81;5094593;28;20042;-67
2021/12/31 05:58:07;;;;;;;8.95;2.97;;;;;;;12.06;96.74;101605.91;5094540;28;20064;-66
2021/12/31 06:00:32;;;;;;;10.05;2.72;;;;;;;11.94;97.21;101599.91;5094629;28;20043;-67
2021/12/31 06:02:58;;;;;;;10.77;2.67;;;;;;;11.99;96.53;101608.59;5094785;28;20028;-67
2021/12/31 06:05:25;;;;;;;8.57;2.88;;;;;;;11.91;97.25;101616.53;5094402;28;20028;-65
2021/12/31 06:07:56;;;;;;;7.60;3.00;;;;;;;11.92;96.86;101613.03;5094699;28;20028;-68
2021/12/31 06:10:22;;;;;;;6.30;2.70;;;;;;;11.76;98.18;101614.88;5094538;28;20032;-68
2021/12/31 06:12:49;;;;;;;6.32;2.70;;;;;;;11.81;97.62;101617.44;5094245;28;20044;-68
2021/12/31 06:15:17;;;;;;;6.13;2.55;;;;;;;11.74;98.00;101608.72;5096399;28;20386;-68
2021/12/31 06:17:42;;;;;;;6.25;2.75;;;;;;;11.70;97.92;101616.59;5097929;28;20020;-67
2021/12/31 06:20:10;;;;;;;5.63;2.80;;;;;;;11.77;97.45;101621.00;5098090;28;20039;-66
2021/12/31 06:22:35;;;;;;;5.35;2.95;;;;;;;11.64;98.33;101621.88;5098041;28;20039;-67
2021/12/31 06:25:00;;;;;;;7.60;3.00;;;;;;;11.73;97.53;101622.72;5097887;28;20344;-66
2021/12/31 06:27:25;;;;;;;5.38;2.83;;;;;;;11.64;97.95;101617.50;5097872;28;20019;-67
2021/12/31 06:29:51;;;;;;;7.82;3.25;;;;;;;11.65;98.23;101631.47;5097929;28;20034;-69
2021/12/31 06:32:16;;;;;;;8.20;2.85;;;;;;;11.62;97.99;101618.38;5097833;28;20028;-65
2021/12/31 06:34:41;;;;;;;4.78;2.70;;;;;;;11.64;97.70;101625.38;5098285;28;20032;-68
2021/12/31 06:37:06;;;;;;;7.10;3.00;;;;;;;11.66;97.55;101618.38;5097607;28;20046;-66
2021/12/31 06:39:34;;;;;;;7.00;2.72;;;;;;;11.57;98.57;101630.66;5097671;28;20316;-66
2021/12/31 06:42:03;;;;;;;7.43;3.03;;;;;;;11.57;98.07;101643.78;5097653;28;20047;-67
2021/12/31 06:44:29;;;;;;;6.28;3.00;;;;;;;11.44;99.00;101645.56;5097616;28;20028;-66
2021/12/31 06:46:54;;;;;;;6.60;2.90;;;;;;;11.39;99.43;101653.47;5097311;28;20038;-68
2021/12/31 06:49:19;;;;;;;8.40;3.08;;;;;;;11.37;99.70;101660.47;5098395;28;20066;-61
2021/12/31 06:51:44;;;;;;;6.97;2.78;;;;;;;11.33;100.00;101663.09;5101614;28;20340;-67
2021/12/31 06:54:10;;;;;;;6.78;2.80;;;;;;;11.27;100.00;101657.84;5097110;28;20040;-66
2021/12/31 06:56:35;;;;;;;6.85;2.88;;;;;;;11.27;100.00;101652.59;5097348;28;20032;-67
2021/12/31 06:59:00;;;;;;;6.93;3.05;;;;;;;11.27;99.96;101635.13;5097580;28;20324;-69
2021/12/31 07:01:25;;;;;;;5.82;2.65;;;;;;;11.26;99.34;101641.25;5097016;28;20024;-67
2021/12/31 07:03:51;;;;;;;8.07;2.78;;;;;;;11.21;99.71;101648.28;5097090;28;20033;-66
2021/12/31 07:06:16;;;;;;;5.18;2.90;;;;;;;11.10;100.00;101645.69;5096993;28;20389;-67
2021/12/31 07:08:41;;;;;;;4.53;2.70;;;;;;;11.16;100.00;101668.38;5097208;28;20036;-67
2021/12/31 07:11:07;;;;;;;7.38;3.50;;;;;;;11.09;100.00;101675.38;5097039;28;20032;-67
2021/12/31 07:13:32;;;;;;;9.57;3.20;;;;;;;11.09;100.00;101677.09;5096892;28;20561;-66
2021/12/31 07:15:57;;;;;;;8.02;2.92;;;;;;;11.08;100.00;101675.41;5096871;28;20032;-66
2021/12/31 07:18:23;;;;;;;3.75;2.95;;;;;;;11.11;100.00;101671.00;5101700;28;20048;-68
2021/12/31 07:20:49;;;;;;;7.32;2.92;;;;;;;11.08;100.00;101668.38;5102566;28;20044;-66
2021/12/31 07:23:18;;;;;;;4.82;2.72;;;;;;;11.08;100.00;101662.28;5096760;28;20106;-66
2021/12/31 07:25:43;;;;;;;6.55;3.00;;;;;;;11.00;100.00;101667.53;5098093;28;20052;-68
2021/12/31 07:28:11;;;;;;;8.65;2.88;;;;;;;11.03;100.00;101682.38;5105116;28;20495;-69
2021/12/31 07:30:36;;;;;;;7.47;3.30;;;;;;;11.03;100.00;101677.16;5104934;28;20024;-69
2021/12/31 07:33:02;;;;;;;7.88;3.35;;;;;;;11.03;100.00;101679.75;5106030;28;20027;-67
2021/12/31 07:35:28;;;;;;;8.38;3.40;;;;;;;11.02;100.00;101672.78;5101795;28;20027;-66
2021/12/31 07:37:55;;;;;;;6.78;2.90;;;;;;;10.97;100.00;101674.53;5096253;28;20105;-68
2021/12/31 07:40:28;;;;;;;6.47;2.95;;;;;;;10.94;100.00;101679.75;5096439;28;20097;-66
2021/12/31 07:42:53;;;;;;;4.90;3.10;;;;;;;10.90;100.00;101683.28;5096613;28;20043;-67
2021/12/31 07:45:19;;;;;;;7.38;3.33;;;;;;;10.93;100.00;101676.28;5096543;28;20028;-66
2021/12/31 07:47:44;;;;;;;8.07;2.90;;;;;;;10.94;100.00;101674.53;5096165;28;20036;-69
2021/12/31 07:50:11;;;;;;;5.80;3.25;;;;;;;10.91;100.00;101679.78;5096110;28;20085;-67
2021/12/31 07:52:37;;;;;;;7.93;2.97;;;;;;;10.94;100.00;101682.38;5096339;28;20351;-68
2021/12/31 07:55:02;;;;;;;4.60;2.97;;;;;;;10.91;100.00;101690.28;5095651;28;20097;-66
2021/12/31 07:57:28;;;;;;;7.32;3.00;;;;;;;10.85;100.00;101688.50;5096300;28;20039;-66
2021/12/31 07:59:53;;;;;;;6.22;3.10;;;;;;;10.87;100.00;101697.25;5096040;28;20423;-67
2021/12/31 08:02:18;;;;;;;4.40;3.00;;;;;;;10.84;100.00;101692.00;5095857;28;20027;-65
2021/12/31 08:04:43;;;;;;;5.00;2.95;;;;;;;10.88;100.00;101701.63;5095917;28;20043;-67
2021/12/31 08:07:09;;;;;;;6.38;3.00;;;;;;;10.88;100.00;101703.34;5096112;28;20020;-66
2021/12/31 08:09:34;;;;;;;7.13;3.10;;;;;;;10.91;100.00;101700.75;5095862;28;20094;-66
2021/12/31 08:11:59;;;;;;;6.97;3.03;;;;;;;10.97;99.88;101708.56;5095625;28;20047;-68
2021/12/31 08:14:24;;;;;;;7.10;3.20;;;;;;;11.02;99.18;101710.31;5095521;28;20043;-69
2021/12/31 08:16:50;;;;;;;4.63;2.90;;;;;;;11.00;99.44;101701.59;5095251;28;20046;-68
2021/12/31 08:19:15;;;;;;;6.25;3.17;;;;;;;11.02;97.81;101678.00;5098457;28;20034;-66
2021/12/31 08:21:41;;;;;;;7.57;3.17;;;;;;;11.11;98.46;101702.44;5106172;28;20028;-66
2021/12/31 08:24:06;;;;;;;4.85;3.00;;;;;;;11.20;97.76;101704.19;5112881;28;20110;-66
2021/12/31 08:26:31;;;;;;;5.88;2.65;;;;;;;11.23;97.25;101680.59;5099059;28;20039;-67
2021/12/31 08:28:56;;;;;;;7.15;3.05;;;;;;;11.29;96.87;101672.69;5106406;28;20023;-66
2021/12/31 08:31:21;;;;;;;6.10;2.78;;;;;;;11.34;96.46;101670.94;5104657;28;20328;-68
2021/12/31 08:33:47;;;;;;;4.78;2.40;;;;;;;11.32;96.47;101664.84;5096758;28;20028;-65
2021/12/31 08:36:12;;;;;;;7.43;2.95;;;;;;;11.40;96.02;101680.53;5095723;28;20502;-67
2021/12/31 08:38:37;;;;;;;4.63;2.75;;;;;;;11.36;95.93;101684.91;5094827;28;20032;-66
2021/12/31 08:41:03;;;;;;;5.10;2.38;;;;;;;11.44;95.26;101687.50;5095575;28;20024;-66
2021/12/31 08:43:28;;;;;;;4.03;2.70;;;;;;;11.40;95.95;101691.91;5095466;28;20036;-66
2021/12/31 08:45:54;;;;;;;5.13;2.40;;;;;;;11.50;95.12;101677.00;5095194;28;20442;-67
2021/12/31 08:48:19;;;;;;;6.88;2.60;;;;;;;11.43;95.69;101683.13;5095373;28;20032;-66
2021/12/31 08:50:45;;;;;;;5.18;2.70;;;;;;;11.48;95.06;101669.13;5094994;28;20111;-67
2021/12/31 08:53:12;;;;;;;6.47;2.55;;;;;;;11.49;95.31;101675.25;5095188;28;20074;-67
2021/12/31 08:55:37;;;;;;;5.60;2.70;;;;;;;11.61;94.17;101669.06;5095261;28;20439;-67
2021/12/31 08:58:02;;;;;;;4.00;2.45;;;;;;;11.58;94.55;101658.63;5095048;28;20059;-66
2021/12/31 09:00:28;;;;;;;4.47;2.50;;;;;;;11.67;94.25;101653.31;5098412;28;20031;-67
2021/12/31 09:02:53;;;;;;;5.18;2.40;;;;;;;11.63;94.59;101646.34;5105898;28;20081;-62
2021/12/31 09:05:18;;;;;;;7.50;2.47;;;;;;;11.67;94.15;101653.31;5115405;28;20330;-68
2021/12/31 09:07:44;;;;;;;4.22;2.15;;;;;;;11.70;93.66;101659.44;5111911;28;20035;-68
2021/12/31 09:10:10;;;;;;;4.57;2.65;;;;;;;11.70;93.91;101642.84;5102819;28;20166;-66
2021/12/31 09:12:38;;;;;;;4.82;2.40;;;;;;;11.71;93.74;101648.06;5094972;28;20044;-67
2021/12/31 09:15:04;;;;;;;4.90;2.50;;;;;;;11.66;93.61;101654.19;5098377;28;20032;-71
2021/12/31 09:17:30;;;;;;;4.93;2.20;;;;;;;11.72;93.59;101676.03;5104188;28;20039;-70
2021/12/31 09:19:55;;;;;;;7.30;2.42;;;;;;;11.68;93.73;101662.94;5105480;28;20119;-70
2021/12/31 09:22:20;;;;;;;6.35;2.55;;;;;;;11.67;93.41;101669.06;5103053;28;20501;-69
2021/12/31 09:24:48;;;;;;;7.18;2.42;;;;;;;11.73;93.37;101664.66;5112262;28;20024;-69
2021/12/31 09:27:13;;;;;;;3.00;2.22;;;;;;;11.75;93.53;101675.16;5115320;28;20398;-71
2021/12/31 09:29:39;;;;;;;3.33;2.28;;;;;;;11.81;92.91;101670.75;5115180;28;20074;-68
2021/12/31 09:32:05;;;;;;;5.20;2.47;;;;;;;11.88;93.43;101681.22;5115059;28;20323;-67
2021/12/31 09:34:30;;;;;;;4.60;2.38;;;;;;;11.84;92.83;101678.63;5114991;28;20035;-69
2021/12/31 09:36:55;;;;;;;5.88;2.40;;;;;;;11.88;92.84;101697.84;5099898;28;20039;-66
2021/12/31 09:39:20;;;;;;;4.13;2.10;;;;;;;11.89;93.36;101710.06;5094591;28;20368;-67
2021/12/31 09:41:46;;;;;;;5.65;2.30;;;;;;;11.87;93.16;101709.22;5103518;28;20028;-68
2021/12/31 09:44:14;;;;;;;4.53;2.40;;;;;;;11.87;92.85;101695.22;5111582;28;20032;-65
2021/12/31 09:46:39;;;;;;;4.05;2.20;;;;;;;11.92;92.45;101717.94;5085222;28;20407;-66
2021/12/31 09:49:05;;;;;;;6.10;2.78;;;;;;;11.90;92.76;101703.94;5114935;28;20023;-66
2021/12/31 09:51:31;;;;;;;3.90;2.20;;;;;;;11.92;92.90;101723.19;5118961;28;20053;-65
2021/12/31 09:53:59;;;;;;;4.75;2.78;;;;;;;11.93;92.44;101714.44;5111661;28;20093;-67
2021/12/31 09:56:25;;;;;;;4.32;2.58;;;;;;;12.02;91.77;101708.25;5098437;28;20031;-66
2021/12/31 09:58:50;;;;;;;6.38;2.90;;;;;;;12.01;91.83;101717.00;5098284;28;20324;-66
2021/12/31 10:01:15;;;;;;;3.88;2.60;;;;;;;12.08;91.79;101721.34;5098398;28;20043;-66
2021/12/31 10:03:41;;;;;;;7.22;2.50;;;;;;;12.12;91.12;101692.44;5098141;28;20100;-68
2021/12/31 10:06:12;;;;;;;4.13;2.30;;;;;;;12.12;91.27;101694.22;5098535;28;20103;-65
2021/12/31 10:08:42;;;;;;;4.47;2.30;;;;;;;12.09;91.14;101700.34;5098413;28;20074;-65
2021/12/31 10:11:17;;;;;;;5.18;2.50;;;;;;;12.11;91.05;101713.47;5098243;28;20036;-66
2021/12/31 10:13:51;;;;;;;4.43;2.45;;;;;;;12.11;91.32;101713.47;5097855;28;20047;-65
2021/12/31 10:16:21;;;;;;;4.35;2.22;;;;;;;12.08;91.37;101701.22;5105240;28;20100;-67
2021/12/31 10:18:49;;;;;;;7.18;3.03;;;;;;;12.01;91.35;101675.03;5118200;28;20033;-66
2021/12/31 10:21:19;;;;;;;5.15;2.65;;;;;;;12.00;91.38;101657.53;5118474;28;20028;-67
2021/12/31 10:23:44;;;;;;;5.72;2.50;;;;;;;11.91;91.45;101679.47;5118862;28;20348;-65
2021/12/31 10:26:12;;;;;;;4.63;2.60;;;;;;;12.00;91.50;101703.00;5118376;28;20052;-63
2021/12/31 10:28:52;;;;;;;5.72;2.72;;;;;;;12.05;92.14;101676.75;5118181;28;20024;-66
2021/12/31 10:31:17;;;;;;;5.13;2.75;;;;;;;12.02;91.88;101672.41;5118562;28;20027;-65
2021/12/31 10:33:45;;;;;;;3.70;2.38;;;;;;;12.16;90.89;101688.03;5118092;28;20046;-63
2021/12/31 10:36:39;;;;;;;5.13;2.60;;;;;;;12.11;91.46;101676.72;5118249;28;20161;-65
2021/12/31 10:39:23;;;;;;;4.40;2.92;;;;;;;12.18;91.72;101679.28;5118330;28;20028;-64
2021/12/31 10:42:04;;;;;;;4.60;2.72;;;;;;;12.24;90.57;101678.38;5118154;28;20074;-63
2021/12/31 10:44:50;;;;;;;5.90;2.90;;;;;;;12.21;91.95;101691.53;5117999;28;20096;-67
2021/12/31 10:47:19;;;;;;;6.60;2.75;;;;;;;12.30;91.01;101704.56;5117824;28;20478;-68
2021/12/31 10:50:02;;;;;;;5.95;2.80;;;;;;;12.31;91.44;101705.44;5117932;28;20032;-68
2021/12/31 10:52:42;;;;;;;7.07;2.75;;;;;;;12.40;91.57;101708.88;5117760;28;20450;-67
2021/12/31 10:57:47;;;;;;;5.80;2.90;;;;;;;12.51;90.08;101714.91;5114200;28;20146;-65
2021/12/31 11:00:14;;;;;;;5.40;3.38;;;;;;;12.54;89.43;101706.16;5117370;28;20062;-68
2021/12/31 11:02:40;;;;;;;7.75;2.58;;;;;;;12.55;89.88;101711.41;5117689;28;20114;-63
2021/12/31 11:05:07;;;;;;;4.85;2.63;;;;;;;12.55;89.92;101695.66;5117477;28;20024;-65
2021/12/31 11:07:32;;;;;;;4.85;2.60;;;;;;;12.50;89.93;101683.44;5117678;28;20027;-63
2021/12/31 11:09:59;;;;;;;7.10;2.83;;;;;;;12.48;89.64;101688.69;5117690;28;20365;-67
2021/12/31 11:12:26;;;;;;;5.35;3.10;;;;;;;12.35;90.29;101680.91;5117165;28;20379;-67
2021/12/31 11:14:52;;;;;;;5.78;2.38;;;;;;;12.26;90.55;101667.88;5117311;28;20336;-65
2021/12/31 11:17:17;;;;;;;4.00;2.40;;;;;;;12.29;90.75;101671.38;5117453;28;20034;-64
2021/12/31 11:19:45;;;;;;;3.83;2.75;;;;;;;12.35;90.62;101673.91;5099243;28;20035;-63
2021/12/31 11:22:12;;;;;;;5.72;3.10;;;;;;;12.49;89.62;101669.44;5117119;28;20051;-63